createdAt,value
2023-05-11T00:02:36.431Z,11.60
2023-05-11T00:07:38.554Z,11.60
2023-05-11T00:12:40.787Z,11.60
2023-05-11T00:17:42.940Z,11.50
2023-05-11T00:22:45.088Z,11.50
2023-05-11T00:27:47.166Z,11.40
2023-05-11T00:32:51.599Z,11.40
2023-05-11T00:37:53.792Z,11.40
2023-05-11T00:42:55.870Z,11.40
2023-05-11T00:47:58.464Z,11.40
2023-05-11T00:53:00.732Z,11.40
2023-05-11T00:58:05.712Z,11.30
2023-05-11T01:03:07.943Z,11.30
2023-05-11T01:08:18.250Z,11.20
2023-05-11T01:13:33.630Z,11.30
2023-05-11T01:18:51.883Z,11.30
2023-05-11T01:24:24.228Z,11.30
2023-05-11T01:29:44.386Z,11.30
2023-05-11T01:34:52.216Z,11.30
2023-05-11T01:39:58.901Z,11.20
2023-05-11T01:45:01.937Z,11.20
2023-05-11T01:50:06.235Z,11.10
2023-05-11T01:55:10.530Z,11.20
2023-05-11T02:00:16.051Z,11.10
2023-05-11T02:05:23.718Z,11.10
2023-05-11T02:10:27.236Z,11.10
2023-05-11T02:15:31.068Z,11.10
2023-05-11T02:20:34.843Z,11.00
2023-05-11T02:25:40.938Z,11.00
2023-05-11T02:30:48.422Z,11.00
2023-05-11T02:35:54.257Z,11.00
2023-05-11T02:41:01.456Z,11.00
2023-05-11T02:46:09.152Z,10.90
2023-05-11T02:51:14.219Z,10.80
2023-05-11T02:56:22.193Z,10.80
2023-05-11T03:01:30.375Z,10.80
2023-05-11T03:06:33.693Z,10.80
2023-05-11T03:11:38.031Z,10.90
2023-05-11T03:16:41.924Z,10.80
2023-05-11T03:21:44.956Z,10.80
2023-05-11T03:26:48.472Z,10.80
2023-05-11T03:31:51.489Z,10.80
2023-05-11T03:36:58.170Z,10.80
2023-05-11T03:42:01.827Z,10.80
2023-05-11T03:47:04.649Z,10.80
2023-05-11T03:52:08.265Z,10.80
2023-05-11T03:57:11.334Z,10.70
2023-05-11T04:02:14.249Z,10.70
2023-05-11T04:07:16.578Z,10.60
2023-05-11T04:12:19.221Z,10.60
2023-05-11T04:17:21.254Z,10.70
2023-05-11T04:22:23.442Z,10.60
2023-05-11T04:27:25.569Z,10.60
2023-05-11T04:32:28.448Z,10.70
2023-05-11T04:37:30.700Z,10.60
2023-05-11T04:42:33.097Z,10.60
2023-05-11T04:47:38.083Z,10.60
2023-05-11T04:52:42.352Z,10.60
2023-05-11T04:57:44.542Z,10.70
2023-05-11T05:02:46.733Z,10.80
2023-05-11T05:07:48.813Z,10.80
2023-05-11T05:12:50.869Z,10.70
2023-05-11T05:17:53.122Z,10.70
2023-05-11T05:22:56.277Z,10.60
2023-05-11T05:27:58.753Z,10.60
2023-05-11T05:33:01.852Z,10.70
2023-05-11T05:38:04.331Z,10.90
2023-05-11T05:43:07.051Z,10.90
2023-05-11T05:48:10.194Z,11.00
2023-05-11T05:53:13.823Z,11.10
2023-05-11T05:58:16.189Z,11.10
2023-05-11T06:03:18.817Z,11.20
2023-05-11T06:08:21.033Z,11.40
2023-05-11T06:13:23.171Z,11.40
2023-05-11T06:18:26.355Z,11.20
2023-05-11T06:23:28.638Z,11.00
2023-05-11T06:28:30.850Z,10.80
2023-05-11T06:33:36.605Z,10.90
2023-05-11T06:38:43.079Z,11.00
2023-05-11T06:43:45.864Z,11.10
2023-05-11T06:49:02.972Z,11.10
2023-05-11T06:54:05.858Z,11.10
2023-05-11T06:59:07.958Z,11.20
2023-05-11T07:04:10.071Z,11.20
2023-05-11T07:09:12.245Z,11.30
2023-05-11T07:14:14.281Z,11.60
2023-05-11T07:19:16.446Z,11.80
2023-05-11T07:24:18.558Z,12.00
2023-05-11T07:29:21.063Z,11.90
2023-05-11T07:34:23.284Z,11.80
2023-05-11T07:39:25.452Z,11.90
2023-05-11T07:44:27.624Z,12.10
2023-05-11T07:49:39.875Z,12.30
2023-05-11T07:54:45.392Z,12.40
2023-05-11T07:59:47.479Z,12.50
2023-05-11T08:04:49.620Z,12.50
2023-05-11T08:09:51.700Z,12.50
2023-05-11T08:14:53.785Z,12.40
2023-05-11T08:19:56.571Z,12.50
2023-05-11T08:24:58.883Z,12.50
2023-05-11T08:30:03.968Z,12.60
2023-05-11T08:35:07.092Z,12.80
2023-05-11T08:40:13.238Z,13.00
2023-05-11T08:45:18.048Z,13.00
2023-05-11T08:50:21.697Z,13.00
2023-05-11T08:55:26.648Z,13.40
2023-05-11T09:00:29.575Z,13.30
2023-05-11T09:05:32.568Z,13.60
2023-05-11T09:10:36.942Z,13.90
2023-05-11T09:15:39.193Z,13.70
2023-05-11T09:20:44.071Z,13.40
2023-05-11T09:25:48.921Z,13.50
2023-05-11T09:30:51.114Z,13.60
2023-05-11T09:35:53.894Z,13.90
2023-05-11T09:40:56.878Z,13.60
2023-05-11T09:46:05.053Z,13.60
2023-05-11T09:51:08.086Z,13.60
2023-05-11T09:56:11.075Z,13.70
2023-05-11T10:01:14.675Z,13.90
2023-05-11T10:06:19.938Z,14.30
2023-05-11T10:11:24.729Z,14.20
2023-05-11T10:16:28.269Z,13.90
2023-05-11T10:21:30.725Z,14.00
2023-05-11T10:26:33.708Z,14.10
2023-05-11T10:31:37.701Z,13.90
2023-05-11T10:36:40.068Z,13.90
2023-05-11T10:42:23.028Z,14.20
2023-05-11T10:48:02.904Z,14.20
2023-05-11T10:53:26.675Z,14.40
2023-05-11T10:58:48.854Z,14.10
2023-05-11T11:04:05.196Z,14.20
2023-05-11T11:09:15.905Z,14.90
2023-05-11T11:14:19.259Z,15.20
2023-05-11T11:19:30.398Z,15.30
2023-05-11T11:24:38.447Z,15.90
2023-05-11T11:29:40.785Z,15.20
2023-05-11T11:34:44.031Z,15.10
2023-05-11T11:39:50.017Z,16.00
2023-05-11T11:44:52.240Z,15.80
2023-05-11T11:49:55.355Z,15.60
2023-05-11T11:55:02.323Z,15.70
2023-05-11T12:00:11.690Z,15.80
2023-05-11T12:05:19.196Z,15.50
2023-05-11T12:10:22.509Z,15.50
2023-05-11T12:15:24.621Z,15.70
2023-05-11T12:20:26.645Z,16.10
2023-05-11T12:25:28.829Z,16.30
2023-05-11T12:30:33.508Z,16.70
2023-05-11T12:35:35.937Z,17.80
2023-05-11T12:40:38.893Z,17.60
2023-05-11T12:45:41.138Z,16.10
2023-05-11T12:50:45.170Z,15.20
2023-05-11T12:55:58.703Z,15.30
2023-05-11T13:01:00.907Z,15.40
2023-05-11T13:06:07.379Z,15.30
2023-05-11T13:11:22.819Z,16.20
2023-05-11T13:16:32.941Z,16.80
2023-05-11T13:21:35.096Z,17.10
2023-05-11T13:26:37.184Z,17.10
2023-05-11T13:31:46.939Z,17.10
2023-05-11T13:36:49.716Z,17.40
2023-05-11T13:41:53.088Z,17.50
2023-05-11T13:46:56.859Z,17.40
2023-05-11T13:52:00.072Z,17.20
2023-05-11T13:57:02.808Z,17.00
2023-05-11T14:02:05.069Z,15.80
2023-05-11T14:07:07.434Z,15.40
2023-05-11T14:12:10.044Z,15.10
2023-05-11T14:17:13.612Z,16.50
2023-05-11T14:22:15.814Z,17.50
2023-05-11T14:27:17.908Z,18.00
2023-05-11T14:32:20.051Z,17.60
2023-05-11T14:37:22.120Z,16.70
2023-05-11T14:42:24.169Z,17.00
2023-05-11T14:47:26.415Z,16.90
2023-05-11T14:52:28.528Z,16.70
2023-05-11T14:57:30.894Z,16.60
2023-05-11T15:02:33.017Z,15.80
2023-05-11T15:07:35.276Z,16.30
2023-05-11T15:12:37.368Z,15.70
2023-05-11T15:17:39.460Z,15.40
2023-05-11T15:22:41.600Z,15.80
2023-05-11T15:27:43.686Z,16.10
2023-05-11T15:32:45.945Z,16.10
2023-05-11T15:37:48.352Z,16.40
2023-05-11T15:42:50.418Z,16.80
2023-05-11T15:47:52.862Z,17.20
2023-05-11T15:52:56.525Z,17.30
2023-05-11T15:57:58.609Z,17.20
2023-05-11T16:03:01.574Z,18.00
2023-05-11T16:08:04.125Z,17.80
2023-05-11T16:13:06.446Z,18.10
2023-05-11T16:18:08.579Z,17.80
2023-05-11T16:23:10.856Z,17.80
2023-05-11T16:28:13.052Z,16.90
2023-05-11T16:33:15.336Z,16.40
2023-05-11T16:38:19.049Z,16.00
2023-05-11T16:43:21.216Z,15.90
2023-05-11T16:48:23.305Z,15.30
2023-05-11T16:53:27.339Z,16.00
2023-05-11T16:58:30.977Z,15.70
2023-05-11T17:03:34.607Z,15.40
2023-05-11T17:08:36.843Z,15.20
2023-05-11T17:13:39.064Z,15.00
2023-05-11T17:18:41.260Z,14.80
2023-05-11T17:23:45.066Z,15.20
2023-05-11T17:28:47.361Z,16.00
2023-05-11T17:33:49.458Z,15.70
2023-05-11T17:38:52.083Z,15.00
2023-05-11T17:43:54.224Z,14.50
2023-05-11T17:48:57.104Z,14.40
2023-05-11T17:53:59.338Z,14.40
2023-05-11T17:59:01.437Z,14.40
2023-05-11T18:04:04.651Z,14.40
2023-05-11T18:09:06.991Z,14.40
2023-05-11T18:14:10.785Z,14.20
2023-05-11T18:19:12.853Z,14.10
2023-05-11T18:24:15.935Z,14.10
2023-05-11T18:29:20.184Z,13.80
2023-05-11T18:34:22.646Z,13.70
2023-05-11T18:39:24.699Z,13.60
2023-05-11T18:44:27.569Z,13.60
2023-05-11T18:49:30.108Z,13.50
2023-05-11T18:54:32.325Z,13.70
2023-05-11T18:59:34.472Z,13.40
2023-05-11T19:04:36.567Z,13.40
2023-05-11T19:09:38.893Z,13.20
2023-05-11T19:14:41.185Z,13.10
2023-05-11T19:19:43.266Z,13.00
2023-05-11T19:24:45.292Z,12.90
2023-05-11T19:29:50.672Z,12.90
2023-05-11T19:34:52.760Z,12.80
2023-05-11T19:40:00.700Z,12.90
2023-05-11T19:45:15.025Z,12.70
2023-05-11T19:50:20.405Z,12.80
2023-05-11T19:55:24.468Z,12.90
2023-05-11T20:00:27.034Z,13.00
2023-05-11T20:05:29.129Z,12.90
2023-05-11T20:10:31.301Z,12.80
2023-05-11T20:15:34.195Z,12.90
2023-05-11T20:20:36.524Z,12.80
2023-05-11T20:25:43.578Z,12.80
2023-05-11T20:30:45.697Z,12.90
2023-05-11T20:35:47.785Z,12.80
2023-05-11T20:40:50.118Z,12.70
2023-05-11T20:45:52.619Z,12.70
2023-05-11T20:50:55.519Z,12.60
2023-05-11T20:55:57.629Z,12.60
2023-05-11T21:00:59.847Z,12.50
2023-05-11T21:06:01.944Z,12.40
2023-05-11T21:11:04.173Z,12.40
2023-05-11T21:16:06.807Z,12.40
2023-05-11T21:21:09.500Z,12.30
2023-05-11T21:26:11.705Z,12.30
2023-05-11T21:31:13.846Z,12.40
2023-05-11T21:36:15.984Z,12.30
2023-05-11T21:41:18.530Z,12.30
2023-05-11T21:46:20.616Z,12.30
2023-05-11T21:51:22.934Z,12.30
2023-05-11T21:56:25.125Z,12.30
2023-05-11T22:01:27.229Z,12.30
2023-05-11T22:06:29.465Z,12.20
2023-05-11T22:11:31.984Z,12.10
2023-05-11T22:16:34.090Z,12.10
2023-05-11T22:21:36.482Z,12.00
2023-05-11T22:26:38.564Z,11.90
2023-05-11T22:31:40.749Z,11.90
2023-05-11T22:36:42.874Z,11.90
2023-05-11T22:41:45.041Z,11.90
2023-05-11T22:46:47.148Z,11.80
2023-05-11T22:51:49.515Z,11.70
2023-05-11T22:56:52.311Z,11.60
2023-05-11T23:01:56.098Z,11.60
2023-05-11T23:06:59.667Z,11.60
2023-05-11T23:12:01.842Z,11.60
2023-05-11T23:17:03.976Z,11.50
2023-05-11T23:22:06.062Z,11.50
2023-05-11T23:27:08.201Z,11.60
2023-05-11T23:32:10.290Z,11.60
2023-05-11T23:37:12.331Z,11.80
2023-05-11T23:42:14.515Z,11.90
2023-05-11T23:47:16.775Z,11.90
2023-05-11T23:52:19.087Z,11.90
2023-05-11T23:57:21.280Z,11.80
